Dati Storici

Data ora Umidita' aria (%) Temperatura aria (°C) Rad globale (W/m²) Gonioanemometro (°) Tacoanemometro (m/s) Pioggia (mm)
31-10-2012 06:10 74 % 6.435 3.486 2.158 1.893 0
31-10-2012 06:00 74.4 % 6.405 3.332 10.405 2.845 0
31-10-2012 05:50 74.5 % 6.333 3.332 43.133 1.882 0
31-10-2012 05:40 74.9 % 6.317 3.281 32.493 1.833 0
31-10-2012 05:30 75.3 % 6.26 3.229 42.58 1.49 0
31-10-2012 05:20 75.5 % 6.287 3.14 14.731 1.879 0
31-10-2012 05:10 75.7 % 6.248 2.889 37.229 1.853 0
31-10-2012 05:00 75.4 % 6.235 2.261 29.109 1.039 0
31-10-2012 04:50 75.4 % 6.224 2.62 13.375 2.599 0
31-10-2012 04:40 74.9 % 6.312 3.735 10.08 2.782 0
31-10-2012 04:30 74.9 % 6.292 3.53 13.397 1.904 0
31-10-2012 04:20 75.1 % 6.268 3.581 349.398 1.502 0
31-10-2012 04:10 75 % 6.239 3.428 9.047 1.723 0
31-10-2012 04:00 74.8 % 6.294 3.041 30.063 1.081 0
31-10-2012 03:50 74.7 % 6.378 3.169 16.122 1.592 0
31-10-2012 03:40 74.5 % 6.42 3.336 2.236 1.584 0
31-10-2012 03:30 74.8 % 6.479 3.093 314.011 0.483 0
31-10-2012 03:20 75 % 6.486 3.105 33.564 1.399 0
31-10-2012 03:10 74.8 % 6.488 3.003 11.761 2.127 0
31-10-2012 03:00 74.9 % 6.475 2.541 42.605 0.439 0

I dati sono presentati in modo automatico a scopo informativo. In seguito a verifica i dati possono subire modifiche o essere invalidati e non riportati negli archivi definitivi.